createdAt,value
2022-07-31T00:07:02.395Z,100559.75
2022-07-31T00:17:04.275Z,100563.47
2022-07-31T00:27:06.436Z,100556.31
2022-07-31T00:37:08.041Z,100556.03
2022-07-31T00:47:09.448Z,100548.16
2022-07-31T00:57:10.787Z,100550.31
2022-07-31T01:07:12.170Z,100548.00
2022-07-31T01:17:13.557Z,100552.50
2022-07-31T01:27:14.906Z,100549.09
2022-07-31T01:37:16.274Z,100562.44
2022-07-31T01:47:17.613Z,100560.44
2022-07-31T01:57:19.175Z,100555.34
2022-07-31T02:07:20.557Z,100548.03
2022-07-31T02:17:22.689Z,100555.16
2022-07-31T02:27:53.772Z,100555.19
2022-07-31T02:37:45.581Z,100545.22
2022-07-31T02:47:46.930Z,100538.81
2022-07-31T02:57:50.374Z,100534.41
2022-07-31T03:07:51.707Z,100529.38
2022-07-31T03:17:53.086Z,100536.97
2022-07-31T03:27:56.938Z,100532.38
2022-07-31T03:37:58.803Z,100532.38
2022-07-31T03:48:00.199Z,100538.38
2022-07-31T03:58:02.674Z,100540.00
2022-07-31T04:08:04.019Z,100534.41
2022-07-31T04:18:06.737Z,100536.47
2022-07-31T04:28:08.087Z,100547.00
2022-07-31T04:38:11.996Z,100538.41
2022-07-31T04:48:13.372Z,100543.91
2022-07-31T04:58:17.565Z,100551.31
2022-07-31T05:08:19.024Z,100560.41
2022-07-31T05:18:20.358Z,100557.00
2022-07-31T05:28:29.960Z,100554.53
2022-07-31T05:38:31.599Z,100551.97
2022-07-31T05:48:33.169Z,100552.66
2022-07-31T05:58:34.614Z,100548.41
2022-07-31T06:08:36.069Z,100546.28
2022-07-31T06:18:37.414Z,100559.72
2022-07-31T06:28:47.449Z,100554.44
2022-07-31T06:38:50.387Z,100557.25
2022-07-31T06:48:52.177Z,100548.59
2022-07-31T06:58:53.591Z,100550.13
2022-07-31T07:08:57.926Z,100558.78
2022-07-31T07:18:59.250Z,100549.50
2022-07-31T07:29:01.606Z,100543.84
2022-07-31T07:39:03.357Z,100529.84
2022-07-31T07:49:06.377Z,100527.03
2022-07-31T07:59:15.122Z,100514.81
2022-07-31T08:09:17.661Z,100497.03
2022-07-31T08:19:19.112Z,100505.00
2022-07-31T08:29:27.379Z,100505.47
2022-07-31T08:39:30.196Z,100501.50
2022-07-31T08:49:31.713Z,100483.34
2022-07-31T08:59:33.092Z,100482.84
2022-07-31T09:09:50.798Z,100461.69
2022-07-31T09:19:55.199Z,100460.03
2022-07-31T09:29:56.532Z,100455.88
2022-07-31T09:39:57.961Z,100445.94
2022-07-31T09:49:59.956Z,100441.09
2022-07-31T10:00:01.327Z,100423.16
2022-07-31T10:10:03.015Z,100428.13
2022-07-31T10:20:04.378Z,100424.19
2022-07-31T10:30:05.695Z,100405.13
2022-07-31T10:40:07.446Z,100400.91
2022-07-31T10:50:08.862Z,100385.22
2022-07-31T11:00:11.942Z,100362.44
2022-07-31T11:10:13.347Z,100359.03
2022-07-31T11:20:14.958Z,100347.94
2022-07-31T11:30:16.324Z,100340.22
2022-07-31T11:40:18.690Z,100333.00
2022-07-31T11:50:23.536Z,100320.81
2022-07-31T12:00:27.358Z,100296.63
2022-07-31T12:10:30.794Z,100285.84
2022-07-31T12:20:36.588Z,100278.97
2022-07-31T12:30:38.738Z,100255.81
2022-07-31T12:40:40.061Z,100237.72
2022-07-31T12:50:41.577Z,100218.63
2022-07-31T13:00:42.837Z,100207.31
2022-07-31T13:10:44.431Z,100203.75
2022-07-31T13:20:45.788Z,100199.66
2022-07-31T13:30:47.108Z,100180.84
2022-07-31T13:41:07.228Z,100167.56
2022-07-31T13:51:08.712Z,100169.03
2022-07-31T14:01:10.041Z,100172.25
2022-07-31T14:11:13.669Z,100143.53
2022-07-31T14:21:16.656Z,100143.97
2022-07-31T14:31:17.999Z,100124.72
2022-07-31T14:41:19.367Z,100123.34
2022-07-31T14:51:20.773Z,100129.44
2022-07-31T15:01:22.139Z,100130.22
2022-07-31T15:11:59.199Z,100106.06
2022-07-31T15:22:16.032Z,100116.38
2022-07-31T15:32:08.664Z,100113.16
2022-07-31T15:42:14.913Z,100094.88
2022-07-31T15:52:18.833Z,100092.81
2022-07-31T16:02:20.816Z,100101.66
2022-07-31T16:12:22.151Z,100084.06
2022-07-31T16:22:23.563Z,100085.06
2022-07-31T16:32:25.034Z,100073.25
2022-07-31T16:42:26.311Z,100074.13
2022-07-31T16:52:27.600Z,100070.56
2022-07-31T17:02:28.863Z,100071.41
2022-07-31T17:12:30.160Z,100068.69
2022-07-31T17:22:31.611Z,100080.91
2022-07-31T17:32:34.662Z,100075.19
2022-07-31T17:42:35.923Z,100086.63
2022-07-31T17:52:38.164Z,100096.56
2022-07-31T18:02:40.385Z,100104.00
2022-07-31T18:12:57.701Z,100108.53
2022-07-31T18:22:59.325Z,100120.44
2022-07-31T18:33:01.661Z,100124.91
2022-07-31T18:43:04.145Z,100139.25
2022-07-31T18:53:05.467Z,100150.66
2022-07-31T19:03:07.930Z,100163.41
2022-07-31T19:13:09.255Z,100157.13
2022-07-31T19:23:20.473Z,100168.97
2022-07-31T19:33:21.807Z,100186.09
2022-07-31T19:43:23.126Z,100199.06
2022-07-31T19:53:24.406Z,100214.31
2022-07-31T20:03:26.470Z,100230.59
2022-07-31T20:13:28.163Z,100237.47
2022-07-31T20:23:29.532Z,100232.09
2022-07-31T20:33:30.884Z,100242.34
2022-07-31T20:43:32.226Z,100250.50
2022-07-31T20:53:33.583Z,100243.34
2022-07-31T21:03:34.985Z,100244.97
2022-07-31T21:13:36.427Z,100257.63
2022-07-31T21:23:37.764Z,100253.28
2022-07-31T21:33:39.234Z,100270.19
2022-07-31T21:43:58.075Z,100270.34
2022-07-31T21:54:00.547Z,100288.34
2022-07-31T22:04:01.911Z,100281.38
2022-07-31T22:14:03.258Z,100287.50
2022-07-31T22:24:04.641Z,100298.06
2022-07-31T22:34:06.014Z,100307.59
2022-07-31T22:44:12.756Z,100321.50
2022-07-31T22:54:15.644Z,100322.34
2022-07-31T23:04:17.045Z,100335.50
2022-07-31T23:14:18.379Z,100347.16
2022-07-31T23:24:19.698Z,100360.50
2022-07-31T23:34:21.035Z,100357.50
2022-07-31T23:44:25.115Z,100360.78
2022-07-31T23:54:27.746Z,100341.22
